createdAt,value
2023-02-05T00:01:26.636Z,104245.47
2023-02-05T00:04:12.351Z,104264.28
2023-02-05T00:06:57.662Z,104253.00
2023-02-05T00:09:43.049Z,104223.94
2023-02-05T00:12:28.355Z,104231.47
2023-02-05T00:15:13.765Z,104256.13
2023-02-05T00:17:59.213Z,104264.81
2023-02-05T00:20:44.576Z,104250.38
2023-02-05T00:23:30.200Z,104228.28
2023-02-05T00:26:15.944Z,104225.78
2023-02-05T00:29:02.562Z,104234.56
2023-02-05T00:31:49.736Z,104249.53
2023-02-05T00:34:35.337Z,104255.78
2023-02-05T00:37:20.694Z,104234.03
2023-02-05T00:40:08.796Z,104217.72
2023-02-05T00:42:54.183Z,104205.75
2023-02-05T00:45:39.909Z,104224.47
2023-02-05T00:48:25.341Z,104253.25
2023-02-05T00:51:12.108Z,104283.34
2023-02-05T00:53:57.757Z,104269.31
2023-02-05T00:56:43.032Z,104253.41
2023-02-05T00:59:28.283Z,104260.50
2023-02-05T01:02:13.601Z,104299.38
2023-02-05T01:04:59.222Z,104317.22
2023-02-05T01:07:44.686Z,104312.88
2023-02-05T01:10:29.896Z,104310.28
2023-02-05T01:13:18.054Z,104305.59
2023-02-05T01:16:04.519Z,104327.78
2023-02-05T01:18:50.325Z,104344.44
2023-02-05T01:21:36.501Z,104354.09
2023-02-05T01:24:22.036Z,104345.47
2023-02-05T01:27:07.493Z,104340.94
2023-02-05T01:29:52.894Z,104361.91
2023-02-05T01:32:40.657Z,104362.16
2023-02-05T01:35:26.467Z,104368.75
2023-02-05T01:38:13.157Z,104357.53
2023-02-05T01:41:00.129Z,104346.97
2023-02-05T01:44:06.606Z,104331.69
2023-02-05T01:46:55.952Z,104336.22
2023-02-05T01:49:43.968Z,104356.34
2023-02-05T01:52:29.476Z,104373.84
2023-02-05T01:55:16.113Z,104349.41
2023-02-05T01:58:02.287Z,104340.59
2023-02-05T02:00:48.418Z,104346.22
2023-02-05T02:03:33.896Z,104364.16
2023-02-05T02:06:19.520Z,104377.94
2023-02-05T02:09:07.436Z,104379.56
2023-02-05T02:11:54.984Z,104393.63
2023-02-05T02:14:44.494Z,104397.13
2023-02-05T02:17:32.868Z,104392.75
2023-02-05T02:20:23.484Z,104396.13
2023-02-05T02:23:36.441Z,104414.13
2023-02-05T02:26:58.890Z,104399.19
2023-02-05T02:29:58.548Z,104387.06
2023-02-05T02:32:51.375Z,104409.78
2023-02-05T02:35:47.049Z,104393.19
2023-02-05T02:38:41.276Z,104377.72
2023-02-05T02:41:49.187Z,104354.41
2023-02-05T02:44:48.692Z,104363.13
2023-02-05T02:47:42.502Z,104380.44
2023-02-05T02:50:35.814Z,104365.56
2023-02-05T02:53:26.837Z,104333.47
2023-02-05T02:56:15.021Z,104341.53
2023-02-05T02:59:08.470Z,104391.91
2023-02-05T03:01:57.329Z,104406.13
2023-02-05T03:04:49.208Z,104369.28
2023-02-05T03:07:39.452Z,104347.63
2023-02-05T03:10:54.172Z,104372.66
2023-02-05T03:13:42.458Z,104379.72
2023-02-05T03:16:31.169Z,104351.16
2023-02-05T03:19:17.155Z,104347.16
2023-02-05T03:22:05.260Z,104353.16
2023-02-05T03:24:51.317Z,104346.50
2023-02-05T03:27:38.817Z,104349.44
2023-02-05T03:30:37.981Z,104339.81
2023-02-05T03:33:42.294Z,104328.91
2023-02-05T03:36:50.170Z,104371.50
2023-02-05T03:40:02.264Z,104395.41
2023-02-05T03:43:12.155Z,104396.47
2023-02-05T03:46:16.084Z,104408.28
2023-02-05T03:49:28.529Z,104438.09
2023-02-05T03:52:19.650Z,104450.88
2023-02-05T03:55:19.712Z,104458.47
2023-02-05T03:58:23.471Z,104434.63
2023-02-05T04:01:11.747Z,104439.59
2023-02-05T04:03:57.439Z,104461.75
2023-02-05T04:06:53.443Z,104467.91
2023-02-05T04:09:39.206Z,104470.38
2023-02-05T04:12:24.910Z,104462.88
2023-02-05T04:15:11.022Z,104452.38
2023-02-05T04:17:59.100Z,104450.16
2023-02-05T04:20:46.582Z,104460.47
2023-02-05T04:23:34.728Z,104466.16
2023-02-05T04:26:20.466Z,104481.97
2023-02-05T04:29:16.100Z,104484.19
2023-02-05T04:32:05.258Z,104480.97
2023-02-05T04:34:51.270Z,104491.28
2023-02-05T04:37:37.351Z,104505.34
2023-02-05T04:40:22.798Z,104475.41
2023-02-05T04:43:08.339Z,104461.34
2023-02-05T04:45:53.726Z,104474.34
2023-02-05T04:48:39.455Z,104480.88
2023-02-05T04:51:25.202Z,104465.19
2023-02-05T04:54:10.701Z,104469.34
2023-02-05T04:56:56.067Z,104469.25
2023-02-05T04:59:41.452Z,104453.53
2023-02-05T05:02:26.809Z,104453.34
2023-02-05T05:05:12.144Z,104454.66
2023-02-05T05:07:59.466Z,104466.63
2023-02-05T05:10:45.339Z,104459.84
2023-02-05T05:13:33.426Z,104449.69
2023-02-05T05:16:19.393Z,104457.00
2023-02-05T05:19:05.311Z,104448.28
2023-02-05T05:21:50.874Z,104447.28
2023-02-05T05:24:36.228Z,104442.63
2023-02-05T05:27:23.262Z,104441.94
2023-02-05T05:30:09.330Z,104443.78
2023-02-05T05:32:54.880Z,104453.84
2023-02-05T05:35:40.424Z,104435.97
2023-02-05T05:38:26.018Z,104450.56
2023-02-05T05:41:39.980Z,104454.06
2023-02-05T05:44:25.326Z,104428.50
2023-02-05T05:47:10.639Z,104443.78
2023-02-05T05:49:55.879Z,104455.13
2023-02-05T05:52:41.117Z,104439.44
2023-02-05T05:55:26.511Z,104441.25
2023-02-05T05:58:12.040Z,104428.72
2023-02-05T06:00:57.548Z,104415.38
2023-02-05T06:03:43.194Z,104412.66
2023-02-05T06:06:28.592Z,104414.56
2023-02-05T06:09:14.097Z,104403.66
2023-02-05T06:11:59.763Z,104395.22
2023-02-05T06:14:45.495Z,104412.94
2023-02-05T06:17:31.045Z,104412.09
2023-02-05T06:20:16.539Z,104403.75
2023-02-05T06:23:01.997Z,104410.09
2023-02-05T06:25:47.423Z,104397.16
2023-02-05T06:28:32.830Z,104409.09
2023-02-05T06:31:18.366Z,104417.69
2023-02-05T06:34:04.091Z,104397.03
2023-02-05T06:36:49.605Z,104411.41
2023-02-05T06:39:34.954Z,104416.16
2023-02-05T06:42:20.609Z,104405.09
2023-02-05T06:45:06.697Z,104416.53
2023-02-05T06:47:56.011Z,104434.94
2023-02-05T06:50:41.330Z,104429.84
2023-02-05T06:53:26.634Z,104420.78
2023-02-05T06:56:12.255Z,104428.41
2023-02-05T06:58:57.582Z,104419.25
2023-02-05T07:01:43.014Z,104424.59
2023-02-05T07:04:31.082Z,104426.72
2023-02-05T07:07:17.292Z,104452.84
2023-02-05T07:10:03.296Z,104443.19
2023-02-05T07:12:48.969Z,104450.47
2023-02-05T07:15:37.754Z,104461.69
2023-02-05T07:18:24.460Z,104467.69
2023-02-05T07:21:14.122Z,104451.25
2023-02-05T07:23:59.283Z,104455.84
2023-02-05T07:26:45.449Z,104449.69
2023-02-05T07:29:31.356Z,104456.88
2023-02-05T07:32:16.884Z,104464.56
2023-02-05T07:35:02.332Z,104471.38
2023-02-05T07:37:47.705Z,104464.63
2023-02-05T07:40:33.016Z,104469.69
2023-02-05T07:43:18.457Z,104468.13
2023-02-05T07:46:06.620Z,104472.13
2023-02-05T07:48:52.232Z,104473.41
2023-02-05T07:51:37.721Z,104473.97
2023-02-05T07:54:23.228Z,104465.19
2023-02-05T07:57:08.631Z,104461.34
2023-02-05T07:59:53.874Z,104468.59
2023-02-05T08:02:39.829Z,104455.47
2023-02-05T08:05:25.116Z,104456.31
2023-02-05T08:08:12.132Z,104472.53
2023-02-05T08:10:59.654Z,104467.97
2023-02-05T08:13:45.966Z,104465.97
2023-02-05T08:16:31.276Z,104467.28
2023-02-05T08:19:18.088Z,104459.63
2023-02-05T08:22:03.667Z,104460.47
2023-02-05T08:24:48.890Z,104468.69
2023-02-05T08:27:36.449Z,104465.06
2023-02-05T08:30:22.174Z,104441.50
2023-02-05T08:33:07.922Z,104465.91
2023-02-05T08:35:53.322Z,104463.34
2023-02-05T08:38:38.895Z,104438.97
2023-02-05T08:41:24.661Z,104443.25
2023-02-05T08:44:10.169Z,104447.97
2023-02-05T08:46:56.009Z,104457.56
2023-02-05T08:49:41.615Z,104454.03
2023-02-05T08:52:26.834Z,104461.66
2023-02-05T08:55:12.572Z,104456.84
2023-02-05T08:57:57.882Z,104457.25
2023-02-05T09:00:43.270Z,104466.09
2023-02-05T09:03:29.324Z,104449.75
2023-02-05T09:06:16.437Z,104450.13
2023-02-05T09:09:02.327Z,104450.53
2023-02-05T09:11:47.620Z,104450.59
2023-02-05T09:14:36.380Z,104450.50
2023-02-05T09:17:22.061Z,104447.09
2023-02-05T09:20:07.791Z,104451.38
2023-02-05T09:22:54.204Z,104448.13
2023-02-05T09:25:41.152Z,104469.28
2023-02-05T09:28:27.007Z,104462.38
2023-02-05T09:31:16.294Z,104472.53
2023-02-05T09:34:03.646Z,104470.94
2023-02-05T09:36:48.966Z,104476.00
2023-02-05T09:40:17.594Z,104476.19
2023-02-05T09:42:52.638Z,104457.50
2023-02-05T09:45:42.569Z,104468.53
2023-02-05T09:48:31.177Z,104463.44
2023-02-05T09:51:20.349Z,104461.63
2023-02-05T09:54:28.026Z,104471.03
2023-02-05T09:57:17.847Z,104463.78
2023-02-05T10:00:16.554Z,104467.72
2023-02-05T10:03:12.186Z,104463.94
2023-02-05T10:06:26.682Z,104460.66
2023-02-05T10:09:40.436Z,104466.72
2023-02-05T10:12:48.142Z,104460.34
2023-02-05T10:15:51.663Z,104456.59
2023-02-05T10:19:00.206Z,104455.06
2023-02-05T10:22:22.572Z,104467.72
2023-02-05T10:25:14.237Z,104452.94
2023-02-05T10:28:25.889Z,104453.19
2023-02-05T10:31:17.774Z,104467.06
2023-02-05T10:34:38.998Z,104461.00
2023-02-05T10:37:46.061Z,104451.75
2023-02-05T10:40:39.453Z,104443.34
2023-02-05T10:43:34.246Z,104458.16
2023-02-05T10:46:20.523Z,104445.22
2023-02-05T10:49:16.990Z,104453.50
2023-02-05T10:52:02.605Z,104434.00
2023-02-05T10:54:48.307Z,104448.94
2023-02-05T10:57:35.764Z,104435.38
2023-02-05T11:00:23.318Z,104438.16
2023-02-05T11:03:17.226Z,104428.69
2023-02-05T11:06:07.416Z,104441.50
2023-02-05T11:08:53.447Z,104413.34
2023-02-05T11:11:40.431Z,104422.81
2023-02-05T11:14:40.867Z,104420.41
2023-02-05T11:17:36.250Z,104412.72
2023-02-05T11:20:31.656Z,104393.53
2023-02-05T11:23:23.459Z,104397.16
2023-02-05T11:26:23.222Z,104394.72
2023-02-05T11:29:23.698Z,104391.41
2023-02-05T11:32:33.874Z,104376.72
2023-02-05T11:35:25.934Z,104387.31
2023-02-05T11:38:27.517Z,104367.78
2023-02-05T11:41:48.203Z,104369.47
2023-02-05T11:44:35.852Z,104374.50
2023-02-05T11:47:31.781Z,104375.03
2023-02-05T11:50:36.013Z,104374.88
2023-02-05T11:53:22.455Z,104373.06
2023-02-05T11:56:12.182Z,104358.16
2023-02-05T11:59:03.273Z,104362.28
2023-02-05T12:01:48.881Z,104366.41
2023-02-05T12:04:46.451Z,104364.31
2023-02-05T12:07:48.928Z,104343.34
2023-02-05T12:10:53.027Z,104351.16
2023-02-05T12:13:50.717Z,104341.81
2023-02-05T12:17:01.604Z,104334.75
2023-02-05T12:20:17.560Z,104320.75
2023-02-05T12:23:37.966Z,104312.78
2023-02-05T12:26:35.114Z,104317.00
2023-02-05T12:29:48.551Z,104315.34
2023-02-05T12:32:40.057Z,104305.16
2023-02-05T12:35:25.351Z,104307.16
2023-02-05T12:38:37.976Z,104296.25
2023-02-05T12:41:33.804Z,104298.31
2023-02-05T12:44:22.290Z,104282.22
2023-02-05T12:47:12.402Z,104271.41
2023-02-05T12:50:10.726Z,104269.03
2023-02-05T12:53:33.558Z,104270.84
2023-02-05T12:56:56.821Z,104270.28
2023-02-05T13:00:03.885Z,104265.22
2023-02-05T13:03:13.990Z,104260.38
2023-02-05T13:06:08.937Z,104252.25
2023-02-05T13:09:19.286Z,104257.47
2023-02-05T13:12:13.878Z,104248.47
2023-02-05T13:14:59.117Z,104251.16
2023-02-05T13:17:59.574Z,104242.13
2023-02-05T13:21:11.890Z,104257.22
2023-02-05T13:24:49.852Z,104253.28
2023-02-05T13:28:08.161Z,104252.72
2023-02-05T13:30:56.130Z,104239.41
2023-02-05T13:33:42.484Z,104246.25
2023-02-05T13:36:46.722Z,104241.03
2023-02-05T13:39:44.531Z,104231.38
2023-02-05T13:42:40.071Z,104221.06
2023-02-05T13:45:34.635Z,104213.84
2023-02-05T13:49:03.016Z,104211.91
2023-02-05T13:51:57.435Z,104208.03
2023-02-05T13:55:22.806Z,104204.56
2023-02-05T13:58:50.227Z,104200.03
2023-02-05T14:01:51.871Z,104190.25
2023-02-05T14:04:42.440Z,104195.16
2023-02-05T14:07:32.803Z,104188.81
2023-02-05T14:10:32.342Z,104187.72
2023-02-05T14:13:34.595Z,104176.28
2023-02-05T14:16:26.296Z,104167.34
2023-02-05T14:19:17.485Z,104170.75
2023-02-05T14:22:07.469Z,104162.59
2023-02-05T14:24:53.279Z,104165.50
2023-02-05T14:27:38.307Z,104162.47
2023-02-05T14:30:29.962Z,104154.06
2023-02-05T14:33:42.732Z,104139.50
2023-02-05T14:36:35.299Z,104134.19
2023-02-05T14:39:25.213Z,104119.19
2023-02-05T14:42:20.631Z,104120.66
2023-02-05T14:45:06.503Z,104113.91
2023-02-05T14:47:52.686Z,104108.78
2023-02-05T14:50:39.029Z,104097.03
2023-02-05T14:53:26.817Z,104099.13
2023-02-05T14:56:26.029Z,104095.72
2023-02-05T14:59:38.808Z,104095.75
2023-02-05T15:03:11.887Z,104100.69
2023-02-05T15:06:09.356Z,104099.63
2023-02-05T15:09:13.499Z,104105.63
2023-02-05T15:12:08.148Z,104097.31
2023-02-05T15:14:57.246Z,104099.50
2023-02-05T15:17:51.879Z,104088.56
2023-02-05T15:20:40.544Z,104086.41
2023-02-05T15:23:36.556Z,104076.69
2023-02-05T15:26:39.754Z,104087.66
2023-02-05T15:29:41.716Z,104083.72
2023-02-05T15:32:36.284Z,104076.97
2023-02-05T15:35:28.548Z,104093.31
2023-02-05T15:38:35.434Z,104087.00
2023-02-05T15:41:22.604Z,104078.97
2023-02-05T15:44:22.461Z,104084.53
2023-02-05T15:47:15.338Z,104081.91
2023-02-05T15:50:02.454Z,104087.13
2023-02-05T15:52:48.063Z,104094.88
2023-02-05T15:55:34.250Z,104091.56
2023-02-05T15:58:24.431Z,104097.00
2023-02-05T16:01:09.918Z,104105.88
2023-02-05T16:03:55.489Z,104102.50
2023-02-05T16:06:41.245Z,104103.38
2023-02-05T16:09:29.562Z,104091.75
2023-02-05T16:12:15.834Z,104096.56
2023-02-05T16:15:03.995Z,104093.31
2023-02-05T16:17:52.260Z,104086.72
2023-02-05T16:20:43.906Z,104084.38
2023-02-05T16:23:29.298Z,104083.97
2023-02-05T16:26:24.156Z,104082.78
2023-02-05T16:29:25.873Z,104080.44
2023-02-05T16:32:20.734Z,104087.50
2023-02-05T16:35:14.449Z,104086.38
2023-02-05T16:38:01.391Z,104086.50
2023-02-05T16:40:50.629Z,104074.72
2023-02-05T16:43:39.248Z,104072.25
2023-02-05T16:46:32.795Z,104070.69
2023-02-05T16:49:24.730Z,104075.31
2023-02-05T16:52:26.473Z,104062.50
2023-02-05T16:55:15.202Z,104053.41
2023-02-05T16:58:06.310Z,104055.66
2023-02-05T17:00:55.717Z,104052.41
2023-02-05T17:03:48.167Z,104055.22
2023-02-05T17:06:36.578Z,104063.78
2023-02-05T17:09:31.109Z,104061.66
2023-02-05T17:12:22.504Z,104071.53
2023-02-05T17:15:13.853Z,104064.59
2023-02-05T17:18:20.166Z,104077.00
2023-02-05T17:21:28.186Z,104078.47
2023-02-05T17:24:14.929Z,104091.06
2023-02-05T17:27:00.281Z,104093.22
2023-02-05T17:29:46.301Z,104098.78
2023-02-05T17:32:32.846Z,104080.41
2023-02-05T17:35:19.331Z,104088.56
2023-02-05T17:38:05.141Z,104085.97
2023-02-05T17:41:10.795Z,104079.34
2023-02-05T17:43:56.485Z,104076.00
2023-02-05T17:46:42.780Z,104077.81
2023-02-05T17:49:28.358Z,104071.47
2023-02-05T17:52:15.553Z,104064.72
2023-02-05T17:55:01.233Z,104070.41
2023-02-05T17:57:46.922Z,104071.41
2023-02-05T18:00:32.434Z,104066.25
2023-02-05T18:03:18.239Z,104073.88
2023-02-05T18:06:04.075Z,104077.81
2023-02-05T18:08:49.396Z,104072.50
2023-02-05T18:11:34.916Z,104075.88
2023-02-05T18:14:20.536Z,104072.56
2023-02-05T18:17:05.960Z,104074.41
2023-02-05T18:19:51.150Z,104075.13
2023-02-05T18:22:37.157Z,104069.13
2023-02-05T18:25:22.451Z,104068.38
2023-02-05T18:28:08.000Z,104066.59
2023-02-05T18:31:05.763Z,104069.72
2023-02-05T18:33:52.770Z,104064.91
2023-02-05T18:36:38.417Z,104064.94
2023-02-05T18:39:28.602Z,104062.06
2023-02-05T18:42:14.640Z,104060.50
2023-02-05T18:45:01.374Z,104057.13
2023-02-05T18:47:47.053Z,104064.44
2023-02-05T18:50:32.699Z,104059.06
2023-02-05T18:53:17.947Z,104062.28
2023-02-05T18:56:05.517Z,104068.63
2023-02-05T18:59:01.106Z,104074.56
2023-02-05T19:01:47.198Z,104074.13
2023-02-05T19:04:33.220Z,104071.34
2023-02-05T19:07:20.610Z,104067.22
2023-02-05T19:10:06.212Z,104050.25
2023-02-05T19:12:51.613Z,104048.03
2023-02-05T19:15:36.884Z,104029.06
2023-02-05T19:18:22.859Z,104034.47
2023-02-05T19:21:14.456Z,104041.94
2023-02-05T19:24:05.660Z,104049.78
2023-02-05T19:26:51.392Z,104053.81
2023-02-05T19:29:40.080Z,104056.59
2023-02-05T19:32:25.476Z,104064.09
2023-02-05T19:35:10.996Z,104060.09
2023-02-05T19:37:56.269Z,104065.66
2023-02-05T19:40:42.069Z,104068.78
2023-02-05T19:43:27.357Z,104076.06
2023-02-05T19:46:12.862Z,104086.50
2023-02-05T19:49:01.908Z,104083.44
2023-02-05T19:51:49.835Z,104084.75
2023-02-05T19:54:36.120Z,104085.84
2023-02-05T19:57:21.733Z,104082.47
2023-02-05T20:00:07.690Z,104075.59
2023-02-05T20:02:57.878Z,104073.13
2023-02-05T20:05:43.222Z,104058.38
2023-02-05T20:08:29.440Z,104052.53
2023-02-05T20:11:15.959Z,104053.75
2023-02-05T20:14:01.925Z,104049.44
2023-02-05T20:16:47.935Z,104052.78
2023-02-05T20:19:33.521Z,104049.78
2023-02-05T20:22:20.117Z,104039.66
2023-02-05T20:25:06.238Z,104051.41
2023-02-05T20:27:51.881Z,104054.56
2023-02-05T20:30:56.017Z,104054.91
2023-02-05T20:33:43.150Z,104061.53
2023-02-05T20:36:29.676Z,104061.56
2023-02-05T20:39:17.590Z,104060.19
2023-02-05T20:42:03.631Z,104054.31
2023-02-05T20:44:49.219Z,104052.34
2023-02-05T20:47:34.436Z,104056.16
2023-02-05T20:50:19.812Z,104050.72
2023-02-05T20:53:05.495Z,104053.13
2023-02-05T20:55:51.239Z,104043.47
2023-02-05T20:58:38.160Z,104047.84
2023-02-05T21:01:28.361Z,104043.19
2023-02-05T21:04:14.087Z,104040.91
2023-02-05T21:06:59.500Z,104043.63
2023-02-05T21:09:45.034Z,104039.41
2023-02-05T21:12:32.384Z,104046.19
2023-02-05T21:15:17.857Z,104038.50
2023-02-05T21:18:03.539Z,104035.34
2023-02-05T21:20:49.371Z,104037.44
2023-02-05T21:23:35.540Z,104035.03
2023-02-05T21:26:23.318Z,104033.84
2023-02-05T21:29:11.723Z,104026.88
2023-02-05T21:31:57.158Z,104035.34
2023-02-05T21:34:42.793Z,104033.38
2023-02-05T21:37:28.294Z,104037.44
2023-02-05T21:40:13.600Z,104037.28
2023-02-05T21:42:58.944Z,104038.22
2023-02-05T21:45:44.562Z,104043.94
2023-02-05T21:48:29.967Z,104040.44
2023-02-05T21:51:17.230Z,104037.41
2023-02-05T21:54:05.217Z,104041.94
2023-02-05T21:56:50.616Z,104041.50
2023-02-05T21:59:35.944Z,104044.66
2023-02-05T22:02:21.161Z,104043.44
2023-02-05T22:05:07.126Z,104043.56
2023-02-05T22:07:52.528Z,104047.19
2023-02-05T22:10:37.916Z,104032.56
2023-02-05T22:13:23.399Z,104036.13
2023-02-05T22:16:12.149Z,104030.88
2023-02-05T22:18:58.584Z,104033.44
2023-02-05T22:21:43.993Z,104037.78
2023-02-05T22:24:29.712Z,104025.38
2023-02-05T22:27:14.952Z,104027.50
2023-02-05T22:30:00.348Z,104025.97
2023-02-05T22:32:45.607Z,104019.81
2023-02-05T22:35:31.153Z,104011.53
2023-02-05T22:38:16.423Z,104028.06
2023-02-05T22:41:06.530Z,104024.63
2023-02-05T22:43:54.449Z,104033.34
2023-02-05T22:46:42.875Z,104030.34
2023-02-05T22:49:28.494Z,104033.97
2023-02-05T22:52:13.663Z,104029.78
2023-02-05T22:54:59.142Z,104029.31
2023-02-05T22:57:44.480Z,104024.50
2023-02-05T23:00:31.530Z,104028.56
2023-02-05T23:03:17.118Z,104038.81
2023-02-05T23:06:11.346Z,104033.66
2023-02-05T23:08:59.635Z,104030.44
2023-02-05T23:11:45.435Z,104028.59
2023-02-05T23:14:31.091Z,104026.19
2023-02-05T23:17:16.337Z,104024.56
2023-02-05T23:20:02.373Z,104031.97
2023-02-05T23:22:48.181Z,104020.06
2023-02-05T23:25:36.511Z,104031.19
2023-02-05T23:28:22.395Z,104025.47
2023-02-05T23:31:07.895Z,104025.75
2023-02-05T23:33:53.914Z,104019.28
2023-02-05T23:36:39.744Z,104007.06
2023-02-05T23:39:25.090Z,104018.81
2023-02-05T23:42:11.994Z,104021.88
2023-02-05T23:44:57.460Z,104016.91
2023-02-05T23:47:42.764Z,104012.84
2023-02-05T23:50:28.415Z,104012.84
2023-02-05T23:53:13.979Z,104019.97
2023-02-05T23:55:59.519Z,104019.69
2023-02-05T23:58:44.949Z,104019.88
